Galdar, Spain
Current Conditions -  °F | °C
As of 9:00 PM on Sunday 23 Nov 2014 (Local Time) from GCLP Reporting Station
Scattered Clouds Scattered Clouds  
Wind Chill: 68°   Ceiling: Unl
Heat Index: 68°   Visibility: 6mi
Dew Point: 63°   Wind: 21mph
Humidity: 83%   Direction: 350°N
Pressure: 30.03"   Gusts: NA
Location:  28.14°N, 15.65°W
Report Text: GCLP 232000Z 35018KT 9999 FEW020 SCT040 20/17 Q1017 NOSIG
Loading
Personal Weather Stations






























Interactive Weather Map New forecast layout! Learn more

10-Day Weather Forecast

Advertisements
Track Severe Weather on mobile